Time;durP1;ratioP1;P1;durP2;ratioP2;P2;SDS_P1;SDS_P2;PMS_P1;PMS_P2;Temp;Humidity;BMP_temperature;BMP_pressure;BME280_temperature;BME280_humidity;BME280_pressure;Samples;Min_cycle;Max_cycle;Signal;HPM_P1;HPM_P2
2023/11/02 00:01:09;;;;;;;4.67;2.03;;;11.40;99.90;;;;;;5087043;28;20534;-59
2023/11/02 00:03:40;;;;;;;9.67;2.47;;;11.40;99.90;;;;;;5091959;28;20342;-59
2023/11/02 00:06:25;;;;;;;4.83;1.73;;;11.40;99.90;;;;;;5086406;28;20223;-59
2023/11/02 00:09:16;;;;;;;7.00;1.80;;;11.50;99.90;;;;;;5085572;28;20223;-60
2023/11/02 00:11:51;;;;;;;7.20;1.80;;;11.50;99.90;;;;;;5082563;28;20270;-60
2023/11/02 00:14:20;;;;;;;5.90;1.57;;;11.50;99.90;;;;;;5090644;28;20688;-59
2023/11/02 00:16:52;;;;;;;7.40;1.60;;;11.50;99.90;;;;;;5084782;28;20203;-60
2023/11/02 00:19:30;;;;;;;7.50;2.47;;;11.40;99.90;;;;;;5086874;28;20187;-60
2023/11/02 00:22:06;;;;;;;7.13;2.30;;;11.40;99.90;;;;;;5083183;28;20261;-60
2023/11/02 00:24:36;;;;;;;5.03;1.80;;;11.40;99.90;;;;;;5086896;28;20214;-60
2023/11/02 00:27:05;;;;;;;6.83;1.87;;;11.30;99.90;;;;;;5085104;28;20282;-60
2023/11/02 00:29:33;;;;;;;7.10;2.10;;;11.30;99.90;;;;;;5091958;28;20276;-59
2023/11/02 00:32:03;;;;;;;10.73;2.07;;;11.30;99.90;;;;;;5092917;28;20566;-59
2023/11/02 00:34:34;;;;;;;9.33;2.10;;;11.20;99.90;;;;;;5086672;28;20642;-60
2023/11/02 00:37:04;;;;;;;8.07;2.20;;;11.20;99.90;;;;;;5087932;28;20306;-60
2023/11/02 00:39:32;;;;;;;9.13;2.00;;;11.10;99.90;;;;;;5091947;28;20302;-60
2023/11/02 00:42:00;;;;;;;10.27;2.43;;;11.10;99.90;;;;;;5089149;28;20260;-59
2023/11/02 00:44:28;;;;;;;12.67;2.20;;;11.10;99.90;;;;;;5091975;28;20677;-60
2023/11/02 00:46:57;;;;;;;4.73;2.20;;;11.00;99.90;;;;;;5091940;28;20736;-60
2023/11/02 00:49:31;;;;;;;4.80;1.97;;;10.90;99.90;;;;;;5088172;28;20557;-60
2023/11/02 00:52:01;;;;;;;7.43;2.80;;;10.90;99.90;;;;;;5090621;28;20302;-60
2023/11/02 00:54:58;;;;;;;9.03;2.00;;;10.90;99.90;;;;;;5088454;28;20224;-61
2023/11/02 00:57:30;;;;;;;8.47;2.20;;;10.80;99.90;;;;;;5088681;28;20222;-60
2023/11/02 00:59:59;;;;;;;8.83;2.00;;;10.80;99.90;;;;;;5059800;28;20219;-60
2023/11/02 01:02:36;;;;;;;7.50;2.00;;;10.70;99.90;;;;;;5065594;28;20698;-59
2023/11/02 01:05:23;;;;;;;11.23;2.20;;;10.70;99.90;;;;;;5071577;28;20227;-60
2023/11/02 01:07:52;;;;;;;5.53;1.57;;;10.60;99.90;;;;;;5062686;28;20211;-60
2023/11/02 01:10:23;;;;;;;11.00;1.80;;;10.60;99.90;;;;;;5068294;28;20275;-60
2023/11/02 01:12:51;;;;;;;15.33;2.10;;;10.60;99.90;;;;;;5063695;28;20238;-60
2023/11/02 01:15:46;;;;;;;7.50;2.00;;;10.60;99.90;;;;;;5066899;28;20606;-60
2023/11/02 01:18:16;;;;;;;5.27;1.80;;;10.60;99.90;;;;;;5081556;28;20251;-60
2023/11/02 01:20:57;;;;;;;9.23;2.33;;;10.60;99.90;;;;;;5085410;28;20240;-60
2023/11/02 01:23:27;;;;;;;12.37;2.10;;;10.60;99.90;;;;;;5084101;28;20284;-60
2023/11/02 01:25:58;;;;;;;11.87;2.23;;;10.60;99.90;;;;;;5085884;28;20569;-60
2023/11/02 01:28:52;;;;;;;8.23;1.93;;;10.60;99.90;;;;;;5087596;28;20183;-60
2023/11/02 01:31:21;;;;;;;9.67;2.27;;;10.60;99.90;;;;;;5083158;28;20223;-60
2023/11/02 01:33:58;;;;;;;8.07;2.07;;;10.70;99.90;;;;;;5087708;28;20219;-60
2023/11/02 01:36:34;;;;;;;6.80;1.77;;;10.70;99.90;;;;;;5085765;28;20218;-60
2023/11/02 01:39:22;;;;;;;10.03;1.80;;;10.70;99.90;;;;;;5089586;28;20222;-61
2023/11/02 01:42:03;;;;;;;4.47;1.90;;;10.70;99.90;;;;;;5063090;28;20224;-60
2023/11/02 01:44:46;;;;;;;13.73;1.87;;;10.70;99.90;;;;;;5087264;28;20222;-60
2023/11/02 01:47:39;;;;;;;6.20;1.97;;;10.80;99.90;;;;;;5078019;28;20212;-60
2023/11/02 01:50:15;;;;;;;4.73;1.60;;;10.80;99.90;;;;;;5088298;28;20215;-60
2023/11/02 01:53:02;;;;;;;5.00;2.00;;;10.90;99.90;;;;;;5089560;28;20187;-59
2023/11/02 01:55:51;;;;;;;6.67;1.60;;;10.90;99.90;;;;;;5088268;28;20188;-60
2023/11/02 01:58:30;;;;;;;7.00;1.70;;;11.00;99.90;;;;;;5084501;28;20215;-59
2023/11/02 02:01:10;;;;;;;5.53;1.47;;;10.90;99.90;;;;;;5085511;28;20216;-59
2023/11/02 02:03:54;;;;;;;2.90;1.57;;;10.90;99.90;;;;;;5085441;28;20694;-60
2023/11/02 02:06:31;;;;;;;6.13;2.10;;;11.00;99.90;;;;;;5080965;28;20254;-59
2023/11/02 02:09:12;;;;;;;4.60;1.90;;;11.10;99.90;;;;;;5085073;28;20230;-59
2023/11/02 02:11:55;;;;;;;8.60;1.80;;;11.10;99.90;;;;;;5085411;28;20222;-60
2023/11/02 02:14:28;;;;;;;6.50;1.43;;;11.10;99.90;;;;;;5086290;28;20245;-59
2023/11/02 02:17:03;;;;;;;4.20;1.30;;;11.20;99.90;;;;;;5086010;28;20831;-59
2023/11/02 02:20:03;;;;;;;4.73;1.63;;;11.20;99.90;;;;;;5084050;28;20194;-62
2023/11/02 02:22:37;;;;;;;3.53;1.80;;;11.20;99.90;;;;;;5069682;28;20212;-60
2023/11/02 02:25:17;;;;;;;6.57;1.77;;;11.30;99.90;;;;;;5068637;28;20318;-59
2023/11/02 02:28:21;;;;;;;1.43;1.30;;;11.20;99.90;;;;;;5064254;28;20586;-59
2023/11/02 02:31:21;;;;;;;7.57;1.70;;;11.20;99.90;;;;;;5051982;28;20215;-60
2023/11/02 02:34:23;;;;;;;4.20;1.70;;;11.30;99.90;;;;;;5067735;28;20228;-59
2023/11/02 02:37:05;;;;;;;2.60;1.33;;;11.30;99.90;;;;;;5063055;28;20577;-59
2023/11/02 02:39:39;;;;;;;1.20;1.00;;;11.30;99.90;;;;;;5063157;28;20218;-59
2023/11/02 02:42:08;;;;;;;5.73;1.50;;;11.40;99.20;;;;;;5064019;28;20290;-60
2023/11/02 02:44:39;;;;;;;4.93;1.60;;;11.50;99.90;;;;;;5077998;28;20419;-59
2023/11/02 02:47:10;;;;;;;6.03;2.00;;;11.40;99.90;;;;;;5083993;28;20223;-60
2023/11/02 02:49:43;;;;;;;6.27;1.53;;;11.40;99.90;;;;;;5080702;28;20595;-59
2023/11/02 02:52:14;;;;;;;2.80;1.40;;;11.50;99.70;;;;;;5088151;28;20211;-61
2023/11/02 02:54:47;;;;;;;3.37;1.30;;;11.50;99.90;;;;;;5083546;28;20223;-60
2023/11/02 02:57:18;;;;;;;2.40;1.33;;;11.50;99.90;;;;;;5087946;28;20223;-59
2023/11/02 02:59:51;;;;;;;2.30;1.43;;;11.50;96.30;;;;;;5085074;28;20311;-60
2023/11/02 03:02:22;;;;;;;2.67;1.60;;;11.50;98.60;;;;;;5069785;28;20216;-59
2023/11/02 03:04:51;;;;;;;2.37;1.50;;;11.50;98.40;;;;;;5086634;28;20231;-60
2023/11/02 03:07:21;;;;;;;3.60;1.50;;;11.50;96.90;;;;;;5073049;28;20196;-59
2023/11/02 03:09:55;;;;;;;1.50;1.40;;;11.60;97.20;;;;;;5083503;28;20320;-59
2023/11/02 03:12:28;;;;;;;3.07;1.20;;;11.60;92.30;;;;;;5086296;28;20233;-60
2023/11/02 03:15:00;;;;;;;3.10;1.30;;;11.60;93.00;;;;;;5080653;28;20218;-59
2023/11/02 03:17:38;;;;;;;6.13;1.47;;;11.70;92.00;;;;;;5085848;28;20310;-59
2023/11/02 03:20:10;;;;;;;1.60;1.50;;;11.80;89.20;;;;;;5083610;28;20238;-60
2023/11/02 03:22:42;;;;;;;1.77;1.23;;;11.80;89.30;;;;;;5085582;28;20589;-59
2023/11/02 03:25:17;;;;;;;4.13;1.47;;;11.80;88.60;;;;;;5088826;28;20275;-60
2023/11/02 03:27:58;;;;;;;4.40;1.20;;;11.80;90.00;;;;;;5086009;28;20218;-60
2023/11/02 03:30:32;;;;;;;2.13;1.30;;;11.80;92.60;;;;;;5086942;28;20218;-60
2023/11/02 03:33:09;;;;;;;4.80;1.57;;;11.80;93.00;;;;;;5090799;28;20867;-59
2023/11/02 03:36:00;;;;;;;4.63;1.43;;;11.90;95.20;;;;;;5090837;28;20226;-59
2023/11/02 03:38:45;;;;;;;9.43;1.57;;;11.90;93.80;;;;;;5086873;28;20211;-60
2023/11/02 03:41:24;;;;;;;4.80;1.60;;;12.00;94.10;;;;;;5089239;28;20226;-59
2023/11/02 03:44:12;;;;;;;2.83;1.30;;;12.00;96.00;;;;;;5088305;28;20192;-59
2023/11/02 03:46:48;;;;;;;2.33;1.40;;;12.00;95.60;;;;;;5087296;28;20203;-59
2023/11/02 03:49:23;;;;;;;1.37;1.17;;;12.00;98.40;;;;;;5093743;28;20197;-60
2023/11/02 03:52:03;;;;;;;2.20;1.13;;;12.10;98.30;;;;;;5091600;28;20233;-59
2023/11/02 03:54:46;;;;;;;1.50;1.10;;;12.10;99.30;;;;;;5086540;28;20214;-59
2023/11/02 03:57:24;;;;;;;2.30;1.20;;;12.20;97.30;;;;;;5093805;28;20697;-59
2023/11/02 04:00:05;;;;;;;2.20;1.10;;;12.20;99.70;;;;;;5085526;28;20295;-59
2023/11/02 04:02:36;;;;;;;6.60;1.37;;;12.20;99.30;;;;;;5091440;28;20260;-59
2023/11/02 04:05:14;;;;;;;2.27;1.13;;;12.20;99.90;;;;;;5071736;28;20218;-59
2023/11/02 04:07:57;;;;;;;2.07;1.23;;;12.10;99.90;;;;;;5085346;28;20519;-60
2023/11/02 04:10:29;;;;;;;2.70;1.60;;;12.00;99.90;;;;;;5092523;28;20215;-59
2023/11/02 04:13:05;;;;;;;4.43;1.30;;;11.80;99.90;;;;;;5092449;28;20238;-60
2023/11/02 04:15:33;;;;;;;3.33;1.30;;;11.70;99.90;;;;;;5088620;28;20219;-60
2023/11/02 04:18:02;;;;;;;1.77;1.30;;;11.60;99.90;;;;;;5090991;28;20314;-60
2023/11/02 04:20:31;;;;;;;3.63;1.63;;;11.50;99.90;;;;;;5074061;28;20219;-59
2023/11/02 04:22:59;;;;;;;6.40;1.67;;;11.50;99.90;;;;;;5092249;28;20226;-59
2023/11/02 04:25:29;;;;;;;1.97;1.40;;;11.50;99.90;;;;;;5084508;28;20188;-60
2023/11/02 04:27:58;;;;;;;1.70;1.20;;;11.50;99.90;;;;;;5090207;28;20219;-59
2023/11/02 04:30:32;;;;;;;3.83;1.37;;;11.60;99.90;;;;;;5088900;28;20228;-59
2023/11/02 04:33:01;;;;;;;2.90;1.20;;;11.60;99.90;;;;;;5081374;28;20219;-60
2023/11/02 04:35:29;;;;;;;3.13;1.40;;;11.50;99.90;;;;;;5087779;28;20229;-59
2023/11/02 04:38:05;;;;;;;3.60;1.30;;;11.50;99.90;;;;;;5091692;28;20211;-60
2023/11/02 04:40:35;;;;;;;1.10;1.10;;;11.40;99.90;;;;;;5094934;28;20194;-56
2023/11/02 04:43:04;;;;;;;1.20;1.10;;;11.40;99.90;;;;;;5088806;28;20283;-63
2023/11/02 04:45:33;;;;;;;1.13;1.10;;;11.40;99.90;;;;;;5084641;28;20223;-59
2023/11/02 04:48:03;;;;;;;2.63;1.20;;;11.50;99.90;;;;;;5091289;28;20322;-60
2023/11/02 04:50:31;;;;;;;1.43;1.10;;;11.50;99.90;;;;;;5090440;28;20223;-60
2023/11/02 04:53:01;;;;;;;2.63;1.33;;;11.60;99.90;;;;;;5092422;28;20220;-59
2023/11/02 04:55:30;;;;;;;1.63;1.20;;;11.60;99.90;;;;;;5094198;28;20191;-59
2023/11/02 04:58:00;;;;;;;3.90;1.40;;;11.70;99.90;;;;;;5090165;28;20222;-59
2023/11/02 05:00:28;;;;;;;4.83;1.57;;;11.80;99.90;;;;;;5086947;28;20215;-59
2023/11/02 05:02:56;;;;;;;3.53;1.30;;;11.90;99.90;;;;;;5087095;28;20231;-59
2023/11/02 05:05:24;;;;;;;2.13;1.20;;;12.00;99.90;;;;;;5087013;28;20219;-60
2023/11/02 05:07:53;;;;;;;2.40;1.23;;;12.00;99.90;;;;;;5086066;28;20288;-60
2023/11/02 05:10:21;;;;;;;3.10;1.20;;;12.00;99.90;;;;;;5087669;28;20220;-59
2023/11/02 05:12:49;;;;;;;1.10;0.93;;;12.00;99.90;;;;;;5090572;28;20219;-60
2023/11/02 05:15:19;;;;;;;4.40;1.30;;;12.00;99.90;;;;;;5090358;28;20306;-60
2023/11/02 05:17:47;;;;;;;2.23;1.20;;;12.00;99.90;;;;;;5086524;28;20296;-59
2023/11/02 05:20:15;;;;;;;2.37;1.00;;;12.10;99.90;;;;;;5070855;28;20682;-60
2023/11/02 05:22:44;;;;;;;1.17;1.17;;;12.20;99.90;;;;;;5087615;28;20190;-60
2023/11/02 05:25:12;;;;;;;2.17;1.00;;;12.20;99.90;;;;;;5085494;28;20191;-60
2023/11/02 05:27:41;;;;;;;1.27;1.00;;;12.20;99.90;;;;;;5086640;28;20588;-59
2023/11/02 05:30:10;;;;;;;1.87;1.30;;;12.30;99.90;;;;;;5091240;28;20241;-59
2023/11/02 05:32:42;;;;;;;2.03;1.20;;;12.40;99.90;;;;;;5080716;28;20215;-59
2023/11/02 05:35:12;;;;;;;1.20;1.10;;;12.40;99.90;;;;;;5087395;28;20316;-59
2023/11/02 05:37:41;;;;;;;5.17;1.70;;;12.40;99.90;;;;;;5086077;28;22154;-59
2023/11/02 05:40:10;;;;;;;2.87;1.40;;;12.50;99.90;;;;;;5090850;28;20200;-59
2023/11/02 05:42:41;;;;;;;1.37;1.30;;;12.50;99.90;;;;;;5088702;28;20231;-59
2023/11/02 05:45:10;;;;;;;2.67;1.53;;;12.50;99.90;;;;;;5091364;28;20219;-60
2023/11/02 05:47:40;;;;;;;1.90;1.30;;;12.50;99.90;;;;;;5078876;28;20763;-59
2023/11/02 05:50:08;;;;;;;10.50;1.63;;;12.60;99.90;;;;;;5090585;28;20219;-59
2023/11/02 05:52:37;;;;;;;3.77;1.30;;;12.60;99.90;;;;;;5086781;28;20195;-59
2023/11/02 05:55:06;;;;;;;1.37;1.27;;;12.60;99.90;;;;;;5088940;28;20211;-59
2023/11/02 05:57:34;;;;;;;2.83;1.40;;;12.60;96.60;;;;;;5088812;28;20211;-59
2023/11/02 06:00:07;;;;;;;4.23;1.40;;;12.60;96.40;;;;;;5092784;28;20207;-60
2023/11/02 06:02:36;;;;;;;2.33;1.30;;;12.70;95.30;;;;;;5091002;28;20553;-59
2023/11/02 06:05:06;;;;;;;2.80;1.30;;;12.70;93.20;;;;;;5085013;28;20618;-59
2023/11/02 06:07:35;;;;;;;1.57;1.43;;;12.80;84.80;;;;;;5088386;28;20383;-59
2023/11/02 06:10:04;;;;;;;3.20;1.40;;;12.90;88.50;;;;;;5088584;28;20728;-60
2023/11/02 06:12:32;;;;;;;4.00;1.30;;;12.80;86.20;;;;;;5085389;28;20569;-60
2023/11/02 06:15:00;;;;;;;3.93;1.30;;;12.80;82.70;;;;;;5085940;28;20739;-61
2023/11/02 06:17:29;;;;;;;4.23;1.43;;;12.90;73.60;;;;;;5087222;28;20309;-59
2023/11/02 06:19:57;;;;;;;9.80;1.77;;;12.90;76.70;;;;;;5086465;28;20788;-60
2023/11/02 06:22:26;;;;;;;4.60;1.60;;;12.90;73.60;;;;;;5089714;28;20183;-59
2023/11/02 06:24:55;;;;;;;7.67;1.57;;;13.00;69.60;;;;;;5086450;28;20573;-59
2023/11/02 06:27:23;;;;;;;4.03;1.30;;;13.00;66.80;;;;;;5083054;28;20681;-59
2023/11/02 06:29:51;;;;;;;8.60;1.70;;;13.00;68.40;;;;;;5087275;28;20219;-59
2023/11/02 06:32:20;;;;;;;7.13;1.43;;;13.10;59.70;;;;;;5080652;28;20230;-60
2023/11/02 06:34:48;;;;;;;7.03;1.60;;;13.20;57.90;;;;;;5086601;28;20668;-59
2023/11/02 06:37:19;;;;;;;7.87;1.87;;;13.10;57.40;;;;;;5089039;28;20191;-59
2023/11/02 06:39:49;;;;;;;7.93;1.80;;;13.10;60.30;;;;;;5086649;28;20302;-60
2023/11/02 06:42:19;;;;;;;6.63;1.70;;;13.10;43.60;;;;;;5085697;28;20226;-60
2023/11/02 06:44:47;;;;;;;5.23;1.50;;;13.20;24.90;;;;;;5081497;28;20235;-59
2023/11/02 06:47:16;;;;;;;10.63;1.80;;;13.30;11.20;;;;;;5086497;28;20224;-60
2023/11/02 06:49:45;;;;;;;4.90;1.47;;;13.30;16.40;;;;;;5087968;28;20546;-60
2023/11/02 06:52:13;;;;;;;7.27;1.40;;;13.30;8.90;;;;;;5090687;28;20194;-59
2023/11/02 06:54:44;;;;;;;3.20;1.30;;;13.30;15.40;;;;;;5072725;28;20315;-60
2023/11/02 06:57:14;;;;;;;2.27;1.07;;;13.30;18.60;;;;;;5085645;28;20227;-60
2023/11/02 06:59:42;;;;;;;3.83;1.27;;;13.30;24.50;;;;;;5086070;28;20243;-59
2023/11/02 07:02:11;;;;;;;3.63;1.40;;;13.30;16.80;;;;;;5087823;28;20230;-59
2023/11/02 07:04:39;;;;;;;6.60;1.87;;;13.30;11.60;;;;;;5048295;28;1160806;-59
2023/11/02 07:07:08;;;;;;;7.63;1.63;;;13.30;17.70;;;;;;5089247;28;20242;-60
2023/11/02 07:09:36;;;;;;;2.50;1.20;;;13.20;23.30;;;;;;5087876;28;20292;-60
2023/11/02 07:12:05;;;;;;;10.57;2.07;;;13.20;23.10;;;;;;5088800;28;20219;-59
2023/11/02 07:14:34;;;;;;;5.23;1.70;;;13.10;25.20;;;;;;5086857;28;20577;-60
2023/11/02 07:17:03;;;;;;;4.23;1.70;;;13.10;18.20;;;;;;5089990;28;20218;-60
2023/11/02 07:19:31;;;;;;;8.27;1.57;;;13.20;3.00;;;;;;5089864;28;20546;-60
2023/11/02 07:21:59;;;;;;;3.93;1.50;;;13.20;14.00;;;;;;5085395;28;20219;-60
2023/11/02 07:24:27;;;;;;;3.83;1.57;;;13.20;9.40;;;;;;5089560;28;20214;-59
2023/11/02 07:26:56;;;;;;;8.17;1.70;;;13.20;5.70;;;;;;5087426;28;20211;-61
2023/11/02 07:29:24;;;;;;;4.13;1.67;;;13.20;4.00;;;;;;5084490;28;20238;-60
2023/11/02 07:31:53;;;;;;;3.67;2.03;;;13.30;6.00;;;;;;5089632;28;20188;-60
2023/11/02 07:34:22;;;;;;;10.80;2.27;;;13.30;13.60;;;;;;5090788;28;20282;-59
2023/11/02 07:36:52;;;;;;;8.63;1.87;;;13.30;3.40;;;;;;5080183;28;20272;-62
2023/11/02 07:39:20;;;;;;;10.90;2.20;;;13.30;1.00;;;;;;5088237;28;20215;-59
2023/11/02 07:41:48;;;;;;;7.87;1.83;;;13.30;1.00;;;;;;5088506;28;20227;-59
2023/11/02 07:44:16;;;;;;;9.43;2.20;;;13.30;1.00;;;;;;5080685;28;20306;-59
2023/11/02 07:46:45;;;;;;;9.30;2.10;;;13.30;1.00;;;;;;5071308;28;20188;-59
2023/11/02 07:49:14;;;;;;;9.90;2.47;;;13.30;1.00;;;;;;5071964;28;20195;-59
2023/11/02 07:51:42;;;;;;;5.87;1.70;;;13.40;1.00;;;;;;5079137;28;20244;-59
2023/11/02 07:54:11;;;;;;;8.07;2.07;;;13.40;1.00;;;;;;5085680;28;20218;-59
2023/11/02 07:56:39;;;;;;;8.77;1.80;;;13.50;1.00;;;;;;5088965;28;20219;-59
2023/11/02 07:59:07;;;;;;;5.73;1.90;;;13.60;1.00;;;;;;5086345;28;20219;-60
2023/11/02 08:01:36;;;;;;;14.83;2.37;;;13.60;1.00;;;;;;5085827;28;20537;-58
2023/11/02 08:04:07;;;;;;;7.30;1.70;;;13.80;1.00;;;;;;5085358;28;20226;-60
2023/11/02 08:06:37;;;;;;;12.03;1.80;;;13.90;1.00;;;;;;5088028;28;20219;-61
2023/11/02 08:09:05;;;;;;;9.00;2.10;;;14.10;1.00;;;;;;5076889;28;20223;-59
2023/11/02 08:11:43;;;;;;;3.63;1.87;;;14.20;1.00;;;;;;5085967;28;20223;-59
2023/11/02 08:14:12;;;;;;;6.00;1.63;;;14.20;1.00;;;;;;5086480;28;20264;-59
2023/11/02 08:16:42;;;;;;;7.23;2.50;;;14.20;1.00;;;;;;5085101;28;20581;-59
2023/11/02 08:19:10;;;;;;;10.27;2.10;;;14.00;1.00;;;;;;5087133;28;20215;-59
2023/11/02 08:21:40;;;;;;;5.97;1.80;;;14.00;1.00;;;;;;5084464;28;20337;-59
2023/11/02 08:24:09;;;;;;;6.60;1.87;;;13.90;1.00;;;;;;5083714;28;20254;-59
2023/11/02 08:26:37;;;;;;;8.47;2.13;;;13.90;1.00;;;;;;5088520;28;20212;-58
2023/11/02 08:29:05;;;;;;;10.93;2.20;;;13.90;1.00;;;;;;5089727;28;20254;-59
2023/11/02 08:31:34;;;;;;;6.40;2.03;;;13.90;1.00;;;;;;5093691;28;20192;-57
2023/11/02 08:34:02;;;;;;;3.87;1.73;;;14.00;1.00;;;;;;5091246;28;20195;-58
2023/11/02 08:36:32;;;;;;;16.83;2.33;;;14.10;1.00;;;;;;5089143;28;20574;-59
2023/11/02 08:39:02;;;;;;;8.43;2.20;;;14.20;1.00;;;;;;5087697;28;20215;-60
2023/11/02 08:41:31;;;;;;;12.37;2.13;;;14.20;1.00;;;;;;5085462;28;20243;-59
2023/11/02 08:44:00;;;;;;;11.57;1.73;;;14.20;1.00;;;;;;5090274;28;20223;-59
2023/11/02 08:46:28;;;;;;;7.17;1.60;;;14.20;1.00;;;;;;5086611;28;20192;-59
2023/11/02 08:48:56;;;;;;;8.47;2.30;;;14.20;1.00;;;;;;5088833;28;20222;-61
2023/11/02 08:51:24;;;;;;;9.23;2.27;;;14.30;1.00;;;;;;5081612;28;20305;-60
2023/11/02 08:53:53;;;;;;;9.47;1.97;;;14.40;1.00;;;;;;5092351;28;20211;-59
2023/11/02 08:56:23;;;;;;;6.67;1.97;;;14.40;1.00;;;;;;5092975;28;20289;-59
2023/11/02 08:58:52;;;;;;;8.57;1.80;;;14.50;1.00;;;;;;5089061;28;20198;-59
2023/11/02 09:01:23;;;;;;;5.83;2.10;;;14.40;1.00;;;;;;5093416;28;20197;-59
2023/11/02 09:03:52;;;;;;;11.50;1.97;;;14.40;1.00;;;;;;5083204;28;20728;-59
2023/11/02 09:06:21;;;;;;;5.33;2.23;;;14.30;1.00;;;;;;5085240;28;20207;-59
2023/11/02 09:08:50;;;;;;;9.03;2.10;;;14.30;1.00;;;;;;5088663;28;20697;-59
2023/11/02 09:11:20;;;;;;;4.80;1.87;;;14.30;1.00;;;;;;5084665;28;20223;-60
2023/11/02 09:13:49;;;;;;;11.03;2.47;;;14.30;1.00;;;;;;5084107;28;20286;-60
2023/11/02 09:16:18;;;;;;;9.23;2.10;;;14.20;1.00;;;;;;5086808;28;20226;-59
2023/11/02 09:18:46;;;;;;;6.27;1.90;;;14.20;1.00;;;;;;5093116;28;20245;-60
2023/11/02 09:21:14;;;;;;;5.37;2.00;;;14.10;1.00;;;;;;5086546;28;20264;-62
2023/11/02 09:23:44;;;;;;;13.30;2.17;;;14.10;1.00;;;;;;5089900;28;20723;-59
2023/11/02 09:26:13;;;;;;;4.20;1.50;;;14.00;1.00;;;;;;5089129;28;20218;-60
2023/11/02 09:28:41;;;;;;;5.13;1.83;;;14.00;1.00;;;;;;5092110;28;20210;-59
2023/11/02 09:31:12;;;;;;;12.60;2.20;;;14.00;1.00;;;;;;5103063;28;20196;-59
2023/11/02 09:33:41;;;;;;;18.40;2.47;;;14.00;1.00;;;;;;5094009;28;20559;-60
2023/11/02 09:36:10;;;;;;;7.97;1.77;;;14.00;1.00;;;;;;5093100;28;20700;-60
2023/11/02 09:38:38;;;;;;;9.07;1.90;;;14.00;1.00;;;;;;5097507;28;20218;-59
2023/11/02 09:41:06;;;;;;;10.53;2.13;;;14.00;99.90;;;;;;5092582;28;20606;-59
2023/11/02 09:43:40;;;;;;;9.10;2.37;;;13.90;99.90;;;;;;5101254;28;20229;-59
2023/11/02 09:46:12;;;;;;;9.87;1.90;;;13.90;1.00;;;;;;5099909;28;20215;-59
2023/11/02 09:48:41;;;;;;;5.33;1.87;;;13.70;1.00;;;;;;5074806;28;20248;-59
2023/11/02 09:51:10;;;;;;;8.43;1.83;;;13.60;1.00;;;;;;5087082;28;20242;-59
2023/11/02 09:53:39;;;;;;;8.73;2.30;;;13.40;1.00;;;;;;5068535;28;20219;-59
2023/11/02 09:56:09;;;;;;;8.90;2.03;;;13.20;1.00;;;;;;5088178;28;20215;-59
2023/11/02 09:58:39;;;;;;;10.13;1.80;;;13.10;1.00;;;;;;5088465;28;20195;-59
2023/11/02 10:01:29;;;;;;;5.67;1.93;;;13.10;1.00;;;;;;5090042;28;20187;-59
2023/11/02 10:04:02;;;;;;;6.53;2.03;;;13.20;1.00;;;;;;5087696;28;20233;-58
2023/11/02 10:06:32;;;;;;;10.07;2.10;;;13.20;1.00;;;;;;5081902;28;20273;-58
2023/11/02 10:09:00;;;;;;;8.07;2.10;;;13.30;1.00;;;;;;5093399;28;20239;-58
2023/11/02 10:11:29;;;;;;;5.03;2.17;;;13.30;1.00;;;;;;5080999;28;20226;-58
2023/11/02 10:13:57;;;;;;;5.50;1.90;;;13.20;1.00;;;;;;5088055;28;20284;-58
2023/11/02 10:16:26;;;;;;;5.20;1.60;;;13.10;1.00;;;;;;5088208;28;20289;-59
2023/11/02 10:18:54;;;;;;;10.90;2.30;;;13.00;1.00;;;;;;5088233;28;20310;-58
2023/11/02 10:21:24;;;;;;;5.53;1.70;;;12.90;1.00;;;;;;5082900;28;20211;-58
2023/11/02 10:23:55;;;;;;;5.13;1.77;;;12.90;1.00;;;;;;5089218;28;20573;-58
2023/11/02 10:26:25;;;;;;;5.43;1.60;;;12.90;1.00;;;;;;5091044;28;20212;-59
2023/11/02 10:28:55;;;;;;;11.50;1.87;;;13.00;1.00;;;;;;5091550;28;20227;-59
2023/11/02 10:31:27;;;;;;;3.33;1.50;;;13.20;99.90;;;;;;5087310;28;20237;-58
2023/11/02 10:33:56;;;;;;;5.33;1.30;;;13.20;99.90;;;;;;5083585;28;20219;-60
2023/11/02 10:36:26;;;;;;;11.27;2.10;;;13.30;99.90;;;;;;5084940;28;20296;-59
2023/11/02 10:38:56;;;;;;;8.43;1.90;;;13.30;99.90;;;;;;5083576;28;20743;-59
2023/11/02 10:41:26;;;;;;;9.47;1.50;;;13.30;99.90;;;;;;5082875;28;20219;-60
2023/11/02 10:43:57;;;;;;;5.77;1.40;;;13.30;99.90;;;;;;5092114;28;20229;-58
2023/11/02 10:46:27;;;;;;;5.23;1.37;;;13.30;99.90;;;;;;5087932;28;20183;-58
2023/11/02 10:48:59;;;;;;;7.00;1.60;;;13.30;99.90;;;;;;5099794;28;20220;-57
2023/11/02 10:51:30;;;;;;;2.27;1.23;;;13.10;1.00;;;;;;5084964;28;20682;-59
2023/11/02 10:54:10;;;;;;;9.37;1.70;;;12.70;1.00;;;;;;5090086;28;20302;-58
2023/11/02 10:56:42;;;;;;;11.47;1.80;;;12.50;1.00;;;;;;5070138;28;20696;-60
2023/11/02 10:59:11;;;;;;;3.27;1.70;;;12.50;1.00;;;;;;5094027;28;20272;-59
2023/11/02 11:01:39;;;;;;;8.73;1.90;;;12.50;1.00;;;;;;5093883;28;20289;-58
2023/11/02 11:04:10;;;;;;;8.80;1.53;;;12.60;1.00;;;;;;5087300;28;20230;-58
2023/11/02 11:06:42;;;;;;;5.70;2.10;;;12.40;1.00;;;;;;5080239;28;20212;-59
2023/11/02 11:09:12;;;;;;;3.80;1.70;;;12.10;1.00;;;;;;5082015;28;20247;-57
2023/11/02 11:11:41;;;;;;;8.07;2.00;;;12.00;1.00;;;;;;5083035;28;20295;-58
2023/11/02 11:14:13;;;;;;;6.10;1.87;;;12.00;1.00;;;;;;5085974;28;20222;-58
2023/11/02 11:16:41;;;;;;;9.50;2.00;;;12.00;1.00;;;;;;5085817;28;20207;-58
2023/11/02 11:19:11;;;;;;;6.93;2.23;;;11.90;1.00;;;;;;5084275;28;20196;-59
2023/11/02 11:21:42;;;;;;;9.90;1.93;;;11.90;1.00;;;;;;5078464;28;20204;-58
2023/11/02 11:24:13;;;;;;;3.67;1.70;;;12.00;1.00;;;;;;5043113;28;20221;-59
2023/11/02 11:26:49;;;;;;;5.67;1.90;;;12.10;1.00;;;;;;5059394;28;20265;-58
2023/11/02 11:29:34;;;;;;;7.53;2.00;;;12.00;1.00;;;;;;5058885;28;20212;-59
2023/11/02 11:32:03;;;;;;;6.53;2.60;;;12.10;1.00;;;;;;5050147;28;20254;-60
2023/11/02 11:35:06;;;;;;;9.90;2.00;;;12.20;1.00;;;;;;5064299;28;20291;-58
2023/11/02 11:37:40;;;;;;;2.83;1.30;;;12.20;1.00;;;;;;5086987;28;20231;-60
2023/11/02 11:40:36;;;;;;;4.73;1.70;;;12.20;1.00;;;;;;5089936;28;20642;-59
2023/11/02 11:43:07;;;;;;;3.87;1.30;;;12.20;1.00;;;;;;5072590;28;20232;-58
2023/11/02 11:45:37;;;;;;;4.17;1.57;;;12.30;1.00;;;;;;5062181;28;20222;-60
2023/11/02 11:48:07;;;;;;;2.53;1.20;;;12.40;1.00;;;;;;5066655;28;20235;-59
2023/11/02 11:50:38;;;;;;;3.80;1.30;;;12.40;1.00;;;;;;5058786;28;20212;-59
2023/11/02 11:53:26;;;;;;;3.87;1.30;;;12.50;1.00;;;;;;5053033;28;20308;-58
2023/11/02 11:56:00;;;;;;;2.17;1.33;;;12.50;1.00;;;;;;5060699;28;20235;-58
2023/11/02 11:58:47;;;;;;;3.60;1.70;;;12.40;1.00;;;;;;5071129;28;20235;-59
2023/11/02 12:01:20;;;;;;;4.03;1.50;;;12.20;1.00;;;;;;5086446;28;20273;-59
2023/11/02 12:03:49;;;;;;;4.23;1.40;;;12.20;1.00;;;;;;5077954;28;20231;-59
2023/11/02 12:06:37;;;;;;;2.73;1.20;;;12.20;1.00;;;;;;5079767;28;20224;-58
2023/11/02 12:09:11;;;;;;;4.20;1.30;;;12.30;1.00;;;;;;5082910;28;20227;-58
2023/11/02 12:11:41;;;;;;;7.80;1.63;;;12.20;1.00;;;;;;5083652;28;20307;-59
2023/11/02 12:14:20;;;;;;;5.67;1.20;;;12.20;1.00;;;;;;5085017;28;20245;-60
2023/11/02 12:16:51;;;;;;;2.97;1.00;;;12.20;1.00;;;;;;5099252;27;20191;-60
2023/11/02 12:19:19;;;;;;;3.27;1.27;;;12.20;1.00;;;;;;5089927;28;20637;-60
2023/11/02 12:21:56;;;;;;;8.73;1.33;;;12.30;1.00;;;;;;5086443;28;20215;-59
2023/11/02 12:24:26;;;;;;;7.33;2.00;;;12.20;1.00;;;;;;5087293;28;20219;-59
2023/11/02 12:27:10;;;;;;;3.93;1.50;;;12.00;1.00;;;;;;5085571;28;20246;-59
2023/11/02 12:29:38;;;;;;;4.70;1.50;;;12.10;1.00;;;;;;5089560;28;20225;-59
2023/11/02 12:32:08;;;;;;;7.17;1.80;;;12.20;1.00;;;;;;5065111;28;20247;-59
2023/11/02 12:34:36;;;;;;;2.93;1.20;;;12.30;1.00;;;;;;5082893;28;20196;-58
2023/11/02 12:37:07;;;;;;;7.33;1.60;;;12.50;1.00;;;;;;5082953;28;20302;-59
2023/11/02 12:39:37;;;;;;;8.03;1.40;;;12.60;1.00;;;;;;5086871;28;20219;-58
2023/11/02 12:42:09;;;;;;;3.87;1.50;;;12.60;1.00;;;;;;5081524;28;20211;-59
2023/11/02 12:44:45;;;;;;;3.73;1.50;;;12.50;1.00;;;;;;5088696;28;20212;-58
2023/11/02 12:47:13;;;;;;;4.20;1.60;;;12.50;1.00;;;;;;5072057;28;20576;-58
2023/11/02 12:49:41;;;;;;;2.67;1.60;;;12.20;1.00;;;;;;5085955;28;20587;-58
2023/11/02 12:52:09;;;;;;;3.07;1.40;;;11.90;1.00;;;;;;5087989;28;20200;-58
2023/11/02 12:54:39;;;;;;;6.67;1.60;;;11.70;1.00;;;;;;5090069;28;20602;-58
2023/11/02 12:57:09;;;;;;;6.13;1.40;;;11.70;1.00;;;;;;5085983;28;20216;-58
2023/11/02 12:59:42;;;;;;;2.37;1.43;;;11.70;1.00;;;;;;5085087;28;20220;-58
2023/11/02 13:02:13;;;;;;;4.73;1.60;;;11.70;1.00;;;;;;5089321;28;20246;-57
2023/11/02 13:04:49;;;;;;;6.10;1.57;;;11.70;1.00;;;;;;5084530;28;20277;-58
2023/11/02 13:07:22;;;;;;;5.50;1.50;;;11.70;1.00;;;;;;5087450;28;20276;-56
2023/11/02 13:10:03;;;;;;;3.97;1.67;;;11.80;1.00;;;;;;5084566;28;20311;-58
2023/11/02 13:12:33;;;;;;;5.07;1.70;;;11.90;1.00;;;;;;5084720;28;20211;-57
2023/11/02 13:15:03;;;;;;;5.80;1.73;;;12.00;1.00;;;;;;5081434;28;20219;-58
2023/11/02 13:17:33;;;;;;;3.90;1.30;;;12.10;1.00;;;;;;5083795;28;20222;-56